createdAt,value
2023-02-06T07:39:13.501Z,1035.66
2023-02-06T07:39:47.971Z,1035.72
2023-02-06T07:40:47.948Z,1035.68
2023-02-06T07:41:47.927Z,1035.66
2023-02-06T07:42:47.917Z,1035.70
2023-02-06T07:43:47.935Z,1035.68
2023-02-06T07:44:47.911Z,1035.66
2023-02-06T07:45:47.941Z,1035.73
2023-02-06T07:46:47.866Z,1035.70
2023-02-06T07:47:47.861Z,1035.72
2023-02-06T07:48:47.846Z,1035.72
2023-02-06T07:49:47.868Z,1035.70
2023-02-06T07:50:47.835Z,1035.68
2023-02-06T07:51:47.826Z,1035.68
2023-02-06T07:52:48.607Z,1035.63
2023-02-06T07:53:47.806Z,1035.65
2023-02-06T07:54:47.813Z,1035.65
2023-02-06T07:55:47.783Z,1035.67
2023-02-06T07:56:47.772Z,1035.70
2023-02-06T07:57:47.780Z,1035.66
2023-02-06T07:58:47.759Z,1035.66
2023-02-06T07:59:47.746Z,1035.63
2023-02-06T08:00:47.770Z,1035.61
2023-02-06T08:01:47.707Z,1035.60
2023-02-06T08:02:47.687Z,1035.60
2023-02-06T08:03:47.724Z,1035.60
2023-02-06T08:04:47.719Z,1035.58
2023-02-06T08:05:47.658Z,1035.59
2023-02-06T08:06:47.655Z,1035.59
2023-02-06T08:07:47.648Z,1035.57
2023-02-06T08:08:47.634Z,1035.63
2023-02-06T08:09:47.633Z,1035.63
2023-02-06T08:10:47.619Z,1035.58
2023-02-06T08:11:47.601Z,1035.57
2023-02-06T08:12:47.590Z,1035.57
2023-02-06T08:13:47.593Z,1035.57
2023-02-06T08:14:47.585Z,1035.54
2023-02-06T08:15:47.546Z,1035.51
2023-02-06T08:16:47.579Z,1035.48
2023-02-06T08:17:47.534Z,1035.49
2023-02-06T08:18:47.548Z,1035.53
2023-02-06T08:19:47.523Z,1035.52
2023-02-06T08:20:47.512Z,1035.54
2023-02-06T08:21:47.476Z,1035.53
2023-02-06T08:22:47.460Z,1035.54
2023-02-06T08:23:47.481Z,1035.56
2023-02-06T08:24:47.457Z,1035.59
2023-02-06T08:25:47.430Z,1035.58
2023-02-06T08:26:47.458Z,1035.58
2023-02-06T08:27:47.451Z,1035.60
2023-02-06T08:28:47.408Z,1035.58
2023-02-06T08:29:47.385Z,1035.61
2023-02-06T08:30:47.423Z,1035.60
2023-02-06T08:31:47.433Z,1035.62
2023-02-06T08:32:47.358Z,1035.65
2023-02-06T08:33:47.374Z,1035.64
2023-02-06T08:34:47.345Z,1035.60
2023-02-06T08:35:47.330Z,1035.60
2023-02-06T08:36:47.328Z,1035.59
2023-02-06T08:37:47.314Z,1035.68
2023-02-06T08:38:47.304Z,1035.77
2023-02-06T08:39:47.272Z,1035.72
2023-02-06T08:40:47.257Z,1035.77
2023-02-06T08:41:47.268Z,1035.77
2023-02-06T08:42:47.273Z,1035.76
2023-02-06T08:43:47.246Z,1035.78
2023-02-06T08:44:47.248Z,1035.72
2023-02-06T08:45:47.283Z,1035.67
2023-02-06T08:46:47.203Z,1035.68
2023-02-06T08:47:47.203Z,1035.64
2023-02-06T08:48:47.180Z,1035.59
2023-02-06T08:49:47.176Z,1035.54
2023-02-06T08:50:47.160Z,1035.58
2023-02-06T08:51:47.156Z,1035.56
2023-02-06T08:52:47.131Z,1035.54
2023-02-06T08:53:47.135Z,1035.55
2023-02-06T08:54:47.127Z,1035.56
2023-02-06T08:55:47.133Z,1035.59
2023-02-06T08:56:47.094Z,1035.62
2023-02-06T08:57:47.073Z,1035.60
2023-02-06T08:58:47.078Z,1035.58
2023-02-06T08:59:47.063Z,1035.61
2023-02-06T09:00:47.032Z,1035.61
2023-02-06T09:01:47.217Z,1035.63
2023-02-06T09:02:47.089Z,1035.66
2023-02-06T09:03:47.015Z,1035.71
2023-02-06T09:04:47.014Z,1035.66
2023-02-06T09:05:46.979Z,1035.68
2023-02-06T09:06:46.991Z,1035.66
2023-02-06T09:07:46.975Z,1035.71
2023-02-06T09:08:46.945Z,1035.73
2023-02-06T09:09:46.960Z,1035.78
2023-02-06T09:10:46.947Z,1035.84
2023-02-06T09:11:46.909Z,1035.79
2023-02-06T09:12:46.909Z,1035.80
2023-02-06T09:13:49.158Z,1035.76
2023-02-06T09:14:46.918Z,1035.77
2023-02-06T09:15:46.894Z,1035.77
2023-02-06T09:16:46.866Z,1035.78
2023-02-06T09:17:46.863Z,1035.77
2023-02-06T09:18:46.841Z,1035.77
2023-02-06T09:19:46.832Z,1035.76
2023-02-06T09:20:46.858Z,1035.73
2023-02-06T09:21:46.798Z,1035.73
2023-02-06T09:22:46.793Z,1035.68
2023-02-06T09:23:46.772Z,1035.75
2023-02-06T09:24:46.780Z,1035.78
2023-02-06T09:25:46.771Z,1035.79
2023-02-06T09:26:58.926Z,1035.81
2023-02-06T09:27:47.742Z,1035.82
2023-02-06T09:28:46.709Z,1035.78
2023-02-06T09:29:46.719Z,1035.79
2023-02-06T09:30:46.810Z,1035.78
2023-02-06T09:31:46.745Z,1035.78
2023-02-06T09:32:46.663Z,1035.77
2023-02-06T09:33:46.662Z,1035.74
2023-02-06T09:34:48.334Z,1035.74
2023-02-06T09:35:46.650Z,1035.74
2023-02-06T09:36:46.639Z,1035.72
2023-02-06T09:37:46.622Z,1035.70
2023-02-06T09:38:46.612Z,1035.69
2023-02-06T09:39:46.631Z,1035.64
2023-02-06T09:40:46.576Z,1035.66
2023-02-06T09:41:46.564Z,1035.65
2023-02-06T09:42:46.555Z,1035.62
2023-02-06T09:43:46.544Z,1035.62
2023-02-06T09:44:46.548Z,1035.64
2023-02-06T09:45:46.549Z,1035.60
2023-02-06T09:46:46.584Z,1035.63
2023-02-06T09:47:47.579Z,1035.64
2023-02-06T09:48:46.480Z,1035.62
2023-02-06T09:49:46.501Z,1035.63
2023-02-06T09:50:46.477Z,1035.65
2023-02-06T09:51:46.446Z,1035.65
2023-02-06T09:52:46.456Z,1035.70
2023-02-06T09:53:46.437Z,1035.70
2023-02-06T09:54:46.450Z,1035.69
2023-02-06T09:55:46.414Z,1035.66
2023-02-06T09:56:46.419Z,1035.63
2023-02-06T09:57:46.392Z,1035.65
2023-02-06T09:58:46.372Z,1035.65
2023-02-06T09:59:46.364Z,1035.66
2023-02-06T10:00:46.373Z,1035.60
2023-02-06T10:01:46.364Z,1035.56
2023-02-06T10:02:46.355Z,1035.50
2023-02-06T10:03:46.394Z,1035.58
2023-02-06T10:04:46.306Z,1035.58
2023-02-06T10:05:46.306Z,1035.54
2023-02-06T10:06:46.296Z,1035.53
2023-02-06T10:07:46.277Z,1035.51
2023-02-06T10:08:46.273Z,1035.52
2023-02-06T10:09:46.242Z,1035.53
2023-02-06T10:10:46.242Z,1035.53
2023-02-06T10:11:46.238Z,1035.55
2023-02-06T10:12:46.213Z,1035.58
2023-02-06T10:13:46.198Z,1035.51
2023-02-06T10:14:46.210Z,1035.51
2023-02-06T10:15:46.235Z,1035.51
2023-02-06T10:16:46.189Z,1035.41
2023-02-06T10:17:46.152Z,1035.43
2023-02-06T10:18:46.239Z,1035.46
2023-02-06T10:19:46.144Z,1035.45
2023-02-06T10:20:46.136Z,1035.48
2023-02-06T10:21:46.109Z,1035.45
2023-02-06T10:22:46.130Z,1035.50
2023-02-06T10:23:47.624Z,1035.45
2023-02-06T10:24:46.077Z,1035.42
2023-02-06T10:25:46.077Z,1035.44
2023-02-06T10:26:46.068Z,1035.47
2023-02-06T10:27:46.098Z,1035.41
2023-02-06T10:28:46.041Z,1035.46
2023-02-06T10:29:46.034Z,1035.47
2023-02-06T10:30:46.037Z,1035.40
2023-02-06T10:31:46.069Z,1035.37
2023-02-06T10:32:46.034Z,1035.27
2023-02-06T10:33:45.978Z,1035.28
2023-02-06T10:34:45.986Z,1035.32
2023-02-06T10:35:45.966Z,1035.33
2023-02-06T10:36:46.232Z,1035.28
2023-02-06T10:37:45.941Z,1035.30
2023-02-06T10:38:45.938Z,1035.32
2023-02-06T10:39:45.921Z,1035.30
2023-02-06T10:40:45.901Z,1035.35
2023-02-06T10:41:45.886Z,1035.35
2023-02-06T10:42:45.916Z,1035.30
2023-02-06T10:43:45.888Z,1035.29
2023-02-06T10:44:51.787Z,1035.25
2023-02-06T10:45:46.900Z,1035.26
2023-02-06T10:46:45.929Z,1035.21
2023-02-06T10:47:45.850Z,1035.24
2023-02-06T10:48:45.811Z,1035.22
2023-02-06T10:49:45.795Z,1035.22
2023-02-06T10:50:45.810Z,1035.19
2023-02-06T10:51:45.772Z,1035.12
2023-02-06T10:52:45.801Z,1035.09
2023-02-06T10:53:45.775Z,1035.05
2023-02-06T10:54:45.761Z,1035.07
2023-02-06T10:55:47.504Z,1035.03
2023-02-06T10:56:45.720Z,1034.97
2023-02-06T10:57:45.724Z,1035.00
2023-02-06T10:58:45.728Z,1035.00
2023-02-06T10:59:45.692Z,1034.95
2023-02-06T11:00:45.711Z,1034.92
2023-02-06T11:01:45.841Z,1034.87
2023-02-06T11:02:49.001Z,1034.86
2023-02-06T11:03:46.651Z,1034.90
2023-02-06T11:04:45.628Z,1034.90
2023-02-06T11:05:45.629Z,1034.88
2023-02-06T11:06:45.650Z,1034.84
2023-02-06T11:07:45.622Z,1034.81
2023-02-06T11:08:45.613Z,1034.79
2023-02-06T11:09:45.566Z,1034.80
2023-02-06T11:10:45.573Z,1034.79
2023-02-06T11:11:48.126Z,1034.78
2023-02-06T11:12:45.552Z,1034.75
2023-02-06T11:13:45.534Z,1034.77
2023-02-06T11:14:45.529Z,1034.76
2023-02-06T11:15:45.513Z,1034.76
2023-02-06T11:16:45.522Z,1034.74
2023-02-06T11:17:45.478Z,1034.74
2023-02-06T11:18:45.499Z,1034.69
2023-02-06T11:19:45.458Z,1034.73
2023-02-06T11:20:45.456Z,1034.75
2023-02-06T11:21:45.430Z,1034.75
2023-02-06T11:22:52.813Z,1034.77
2023-02-06T11:23:46.424Z,1034.73
2023-02-06T11:24:45.413Z,1034.75
2023-02-06T11:25:45.383Z,1034.73
2023-02-06T11:26:45.384Z,1034.72
2023-02-06T11:27:45.484Z,1034.67
2023-02-06T11:28:45.383Z,1034.64
2023-02-06T11:29:45.380Z,1034.59
2023-02-06T11:30:45.409Z,1034.67
2023-02-06T11:31:45.401Z,1034.59
2023-02-06T11:32:58.988Z,1034.66
2023-02-06T11:33:46.327Z,1034.72
2023-02-06T11:34:45.301Z,1034.66
2023-02-06T11:35:45.272Z,1034.63
2023-02-06T11:36:45.290Z,1034.58
2023-02-06T11:37:45.270Z,1034.62
2023-02-06T11:38:45.779Z,1034.62
2023-02-06T11:39:45.233Z,1034.57
2023-02-06T11:40:45.232Z,1034.53
2023-02-06T11:41:45.206Z,1034.48
2023-02-06T11:42:45.198Z,1034.51
2023-02-06T11:43:46.698Z,1034.47
2023-02-06T11:44:45.192Z,1034.43
2023-02-06T11:45:45.193Z,1034.43
2023-02-06T11:46:45.186Z,1034.45
2023-02-06T11:47:45.150Z,1034.45
2023-02-06T11:48:45.145Z,1034.48
2023-02-06T11:49:45.130Z,1034.44
2023-02-06T11:50:45.135Z,1034.38
2023-02-06T11:51:45.109Z,1034.45
2023-02-06T11:52:46.789Z,1034.32
2023-02-06T11:53:45.069Z,1034.28
2023-02-06T11:54:45.121Z,1034.37
2023-02-06T11:55:45.143Z,1034.36
2023-02-06T11:56:45.066Z,1034.32
2023-02-06T11:57:45.021Z,1034.37
2023-02-06T11:58:45.026Z,1034.39
2023-02-06T11:59:45.016Z,1034.41
2023-02-06T12:00:45.006Z,1034.39
2023-02-06T12:01:44.990Z,1034.36
2023-02-06T12:02:44.977Z,1034.36
2023-02-06T12:03:45.033Z,1034.26
2023-02-06T12:04:44.977Z,1034.21
2023-02-06T12:05:44.934Z,1034.30
2023-02-06T12:06:44.926Z,1034.34
2023-02-06T12:07:44.909Z,1034.23
2023-02-06T12:08:44.906Z,1034.33
2023-02-06T12:09:44.905Z,1034.34
2023-02-06T12:10:44.962Z,1034.33
2023-02-06T12:11:44.867Z,1034.37
2023-02-06T12:12:44.873Z,1034.36
2023-02-06T12:13:44.856Z,1034.34
2023-02-06T12:14:44.835Z,1034.37
2023-02-06T12:15:47.214Z,1034.39
2023-02-06T12:16:44.864Z,1034.37
2023-02-06T12:17:44.804Z,1034.33
2023-02-06T12:18:44.799Z,1034.39
2023-02-06T12:19:44.798Z,1034.41
2023-02-06T12:20:44.798Z,1034.33
2023-02-06T12:21:44.788Z,1034.31
2023-02-06T12:22:44.757Z,1034.31
2023-02-06T12:23:44.741Z,1034.22
2023-02-06T12:24:44.740Z,1034.20
2023-02-06T12:25:44.760Z,1034.29
2023-02-06T12:26:44.737Z,1034.31
2023-02-06T12:27:44.735Z,1034.33
2023-02-06T12:28:44.689Z,1034.36
2023-02-06T12:29:44.657Z,1034.34
2023-02-06T12:30:44.819Z,1034.34
2023-02-06T12:31:44.757Z,1034.32
2023-02-06T12:32:44.640Z,1034.33
2023-02-06T12:33:44.617Z,1034.38
2023-02-06T12:34:44.602Z,1034.36
2023-02-06T12:35:44.600Z,1034.34
2023-02-06T12:36:44.596Z,1034.31
2023-02-06T12:37:44.566Z,1034.33
2023-02-06T12:38:44.570Z,1034.36
2023-02-06T12:39:44.569Z,1034.34
2023-02-06T12:40:44.532Z,1034.30
2023-02-06T12:41:44.550Z,1034.27
2023-02-06T12:42:44.538Z,1034.23
2023-02-06T12:43:44.495Z,1034.16
2023-02-06T12:44:44.548Z,1034.20
2023-02-06T12:45:44.500Z,1034.17
2023-02-06T12:46:44.497Z,1034.15
2023-02-06T12:47:44.460Z,1034.14
2023-02-06T12:48:44.480Z,1034.15
2023-02-06T12:49:44.428Z,1034.10
2023-02-06T12:50:44.435Z,1034.10
2023-02-06T12:51:44.416Z,1034.11
2023-02-06T12:52:44.407Z,1034.05
2023-02-06T12:53:44.402Z,1034.06
2023-02-06T12:54:44.390Z,1034.01
2023-02-06T12:55:44.459Z,1034.02
2023-02-06T12:56:44.382Z,1033.97
2023-02-06T12:57:44.336Z,1033.99
2023-02-06T12:58:44.377Z,1033.97
2023-02-06T12:59:57.144Z,1033.93
2023-02-06T13:00:45.328Z,1033.98
2023-02-06T13:01:44.289Z,1033.93
2023-02-06T13:02:44.356Z,1033.92
2023-02-06T13:03:44.289Z,1033.93
2023-02-06T13:04:44.258Z,1033.93
2023-02-06T13:05:44.271Z,1033.88
2023-02-06T13:06:44.303Z,1033.91
2023-02-06T13:07:49.213Z,1033.95
2023-02-06T13:08:45.219Z,1033.89
2023-02-06T13:09:44.214Z,1033.91
2023-02-06T13:10:44.211Z,1033.92
2023-02-06T13:11:44.193Z,1033.89
2023-02-06T13:12:44.198Z,1033.91
2023-02-06T13:13:44.168Z,1033.93
2023-02-06T13:14:44.197Z,1033.91
2023-02-06T13:15:44.174Z,1033.88
2023-02-06T13:16:44.138Z,1033.88
2023-02-06T13:17:44.134Z,1033.90
2023-02-06T13:18:44.119Z,1033.86
2023-02-06T13:19:44.095Z,1033.82
2023-02-06T13:20:44.093Z,1033.82
2023-02-06T13:21:44.068Z,1033.76
2023-02-06T13:22:44.094Z,1033.81
2023-02-06T13:23:44.044Z,1033.80
2023-02-06T13:24:44.050Z,1033.77
2023-02-06T13:25:44.023Z,1033.80
2023-02-06T13:26:44.028Z,1033.86
2023-02-06T13:27:44.110Z,1033.84
2023-02-06T13:28:43.992Z,1033.82
2023-02-06T13:29:43.991Z,1033.84
2023-02-06T13:30:44.101Z,1033.76
2023-02-06T13:31:44.014Z,1033.80
2023-02-06T13:32:43.957Z,1033.79
2023-02-06T13:33:43.946Z,1033.81
2023-02-06T13:34:43.942Z,1033.91
2023-02-06T13:35:43.935Z,1033.84
2023-02-06T13:36:43.900Z,1033.82
2023-02-06T13:37:43.919Z,1033.79
2023-02-06T13:38:43.890Z,1033.85
2023-02-06T13:39:43.875Z,1033.81
2023-02-06T13:40:43.867Z,1033.80
2023-02-06T13:41:43.840Z,1033.76
2023-02-06T13:42:43.842Z,1033.75
2023-02-06T13:43:43.844Z,1033.77
2023-02-06T13:44:43.821Z,1033.78
2023-02-06T13:45:43.796Z,1033.78
2023-02-06T13:46:43.816Z,1033.77
2023-02-06T13:47:43.773Z,1033.76
2023-02-06T13:48:46.558Z,1033.72
2023-02-06T13:49:43.765Z,1033.74
2023-02-06T13:50:43.754Z,1033.76
2023-02-06T13:51:43.730Z,1033.81
2023-02-06T13:52:43.717Z,1033.82
2023-02-06T13:53:43.707Z,1033.79
2023-02-06T13:54:43.713Z,1033.82
2023-02-06T13:55:43.683Z,1033.82
2023-02-06T13:56:43.684Z,1033.78
2023-02-06T13:57:43.669Z,1033.76
2023-02-06T13:58:43.662Z,1033.70
2023-02-06T13:59:43.646Z,1033.70
2023-02-06T14:00:43.654Z,1033.65
2023-02-06T14:01:43.651Z,1033.66
2023-02-06T14:02:43.625Z,1033.64
2023-02-06T14:03:43.607Z,1033.67
2023-02-06T14:04:43.581Z,1033.67
2023-02-06T14:05:43.581Z,1033.68
2023-02-06T14:06:43.577Z,1033.72
2023-02-06T14:07:43.559Z,1033.69
2023-02-06T14:08:43.543Z,1033.68
2023-02-06T14:09:44.085Z,1033.72
2023-02-06T14:10:43.525Z,1033.71
2023-02-06T14:11:43.500Z,1033.69
2023-02-06T14:12:43.484Z,1033.65
2023-02-06T14:13:43.490Z,1033.66
2023-02-06T14:14:43.474Z,1033.60
2023-02-06T14:15:43.515Z,1033.60
2023-02-06T14:16:43.442Z,1033.58
2023-02-06T14:17:43.431Z,1033.60
2023-02-06T14:18:43.451Z,1033.60
2023-02-06T14:19:43.421Z,1033.60
2023-02-06T14:20:43.531Z,1033.60
2023-02-06T14:21:43.394Z,1033.61
2023-02-06T14:22:43.380Z,1033.64
2023-02-06T14:23:45.361Z,1033.61
2023-02-06T14:24:43.363Z,1033.60
2023-02-06T14:25:43.364Z,1033.57
2023-02-06T14:26:43.337Z,1033.53
2023-02-06T14:27:43.311Z,1033.54
2023-02-06T14:28:43.296Z,1033.52
2023-02-06T14:29:43.293Z,1033.52
2023-02-06T14:30:43.295Z,1033.55
2023-02-06T14:31:45.857Z,1033.60
2023-02-06T14:32:43.253Z,1033.64
2023-02-06T14:33:43.245Z,1033.63
2023-02-06T14:34:43.253Z,1033.64
2023-02-06T14:35:43.261Z,1033.67
2023-02-06T14:36:43.239Z,1033.63
2023-02-06T14:37:43.218Z,1033.61
2023-02-06T14:38:43.202Z,1033.56
2023-02-06T14:39:43.204Z,1033.56
2023-02-06T14:40:43.196Z,1033.56
2023-02-06T14:41:43.165Z,1033.55
2023-02-06T14:42:43.140Z,1033.57
2023-02-06T14:43:43.127Z,1033.56
2023-02-06T14:44:43.112Z,1033.60
2023-02-06T14:45:44.017Z,1033.60
2023-02-06T14:46:43.234Z,1033.58
2023-02-06T14:47:43.089Z,1033.56
2023-02-06T14:48:43.119Z,1033.54
2023-02-06T14:49:43.073Z,1033.55
2023-02-06T14:50:43.093Z,1033.55
2023-02-06T14:51:43.060Z,1033.55
2023-02-06T14:52:43.049Z,1033.53
2023-02-06T14:53:43.041Z,1033.53
2023-02-06T14:54:43.022Z,1033.52
2023-02-06T14:55:43.014Z,1033.55
2023-02-06T14:56:42.992Z,1033.53
2023-02-06T14:57:43.011Z,1033.52
2023-02-06T14:58:42.955Z,1033.53
2023-02-06T14:59:42.978Z,1033.54
2023-02-06T15:00:42.948Z,1033.59
2023-02-06T15:01:42.929Z,1033.57
2023-02-06T15:02:42.967Z,1033.50
2023-02-06T15:03:43.030Z,1033.53
2023-02-06T15:04:42.900Z,1033.57
2023-02-06T15:05:42.902Z,1033.54
2023-02-06T15:06:42.891Z,1033.55
2023-02-06T15:07:42.870Z,1033.59
2023-02-06T15:08:42.859Z,1033.57
2023-02-06T15:09:42.852Z,1033.56
2023-02-06T15:10:42.846Z,1033.57
2023-02-06T15:11:42.813Z,1033.57
2023-02-06T15:12:42.811Z,1033.56
2023-02-06T15:13:42.805Z,1033.55
2023-02-06T15:14:42.774Z,1033.55
2023-02-06T15:15:42.992Z,1033.58
2023-02-06T15:16:42.766Z,1033.60
2023-02-06T15:17:42.748Z,1033.60
2023-02-06T15:18:42.736Z,1033.55
2023-02-06T15:19:42.735Z,1033.52
2023-02-06T15:20:42.723Z,1033.49
2023-02-06T15:21:42.708Z,1033.47
2023-02-06T15:22:42.720Z,1033.48
2023-02-06T15:23:42.696Z,1033.54
2023-02-06T15:24:42.681Z,1033.53
2023-02-06T15:25:42.762Z,1033.53
2023-02-06T15:26:42.653Z,1033.50
2023-02-06T15:27:42.648Z,1033.55
2023-02-06T15:28:42.619Z,1033.62
2023-02-06T15:29:42.618Z,1033.58
2023-02-06T15:30:42.614Z,1033.63
2023-02-06T15:31:42.683Z,1033.60
2023-02-06T15:32:42.612Z,1033.55
2023-02-06T15:33:42.609Z,1033.58
2023-02-06T15:34:42.568Z,1033.58
2023-02-06T15:35:42.580Z,1033.60
2023-02-06T15:36:42.567Z,1033.60
2023-02-06T15:37:42.522Z,1033.67
2023-02-06T15:38:42.535Z,1033.63
2023-02-06T15:39:42.500Z,1033.62
2023-02-06T15:40:42.501Z,1033.60
2023-02-06T15:41:42.503Z,1033.61
2023-02-06T15:42:42.462Z,1033.62
2023-02-06T15:43:42.460Z,1033.57
2023-02-06T15:44:42.441Z,1033.56
2023-02-06T15:45:42.457Z,1033.48
2023-02-06T15:46:42.453Z,1033.50
2023-02-06T15:47:42.430Z,1033.52
2023-02-06T15:48:43.787Z,1033.49
2023-02-06T15:49:42.466Z,1033.46
2023-02-06T15:50:42.383Z,1033.46
2023-02-06T15:51:42.395Z,1033.50
2023-02-06T15:52:42.352Z,1033.47
2023-02-06T15:53:42.400Z,1033.45
2023-02-06T15:54:42.362Z,1033.47
2023-02-06T15:55:42.335Z,1033.47
2023-02-06T15:56:42.340Z,1033.42
2023-02-06T15:57:42.311Z,1033.42
2023-02-06T15:58:42.280Z,1033.45
2023-02-06T15:59:42.302Z,1033.46
2023-02-06T16:00:42.274Z,1033.41
2023-02-06T16:01:42.276Z,1033.41
2023-02-06T16:02:42.233Z,1033.40
2023-02-06T16:03:42.241Z,1033.40
2023-02-06T16:04:42.212Z,1033.38
2023-02-06T16:05:42.205Z,1033.35
2023-02-06T16:06:42.205Z,1033.35
2023-02-06T16:07:42.196Z,1033.38
2023-02-06T16:08:42.180Z,1033.42
2023-02-06T16:09:42.182Z,1033.39
2023-02-06T16:10:42.166Z,1033.36
2023-02-06T16:11:42.221Z,1033.33
2023-02-06T16:12:42.133Z,1033.36
2023-02-06T16:13:42.133Z,1033.30
2023-02-06T16:14:42.120Z,1033.33
2023-02-06T16:15:42.115Z,1033.33
2023-02-06T16:16:42.160Z,1033.38
2023-02-06T16:17:42.118Z,1033.41
2023-02-06T16:18:42.065Z,1033.39
2023-02-06T16:19:42.113Z,1033.40
2023-02-06T16:20:42.050Z,1033.43
2023-02-06T16:21:42.027Z,1033.44
2023-02-06T16:22:42.026Z,1033.47
2023-02-06T16:23:42.020Z,1033.44
2023-02-06T16:24:42.006Z,1033.44
2023-02-06T16:25:41.979Z,1033.43
2023-02-06T16:26:41.997Z,1033.40
2023-02-06T16:27:41.984Z,1033.45
2023-02-06T16:28:41.945Z,1033.46
2023-02-06T16:29:41.962Z,1033.45
2023-02-06T16:30:41.979Z,1033.45
2023-02-06T16:31:42.113Z,1033.39
2023-02-06T16:32:41.917Z,1033.37
2023-02-06T16:33:41.898Z,1033.39
2023-02-06T16:34:41.882Z,1033.37
2023-02-06T16:35:41.874Z,1033.38
2023-02-06T16:36:41.856Z,1033.37
2023-02-06T16:37:41.849Z,1033.36
2023-02-06T16:38:44.501Z,1033.37
2023-02-06T16:39:41.817Z,1033.35
2023-02-06T16:40:41.819Z,1033.33
2023-02-06T16:41:41.810Z,1033.33
2023-02-06T16:42:41.835Z,1033.34
2023-02-06T16:43:41.781Z,1033.35
2023-02-06T16:44:45.296Z,1033.33
2023-02-06T16:45:41.776Z,1033.33
2023-02-06T16:46:41.736Z,1033.32
2023-02-06T16:47:41.738Z,1033.35
2023-02-06T16:48:41.706Z,1033.34
2023-02-06T16:49:41.726Z,1033.30
2023-02-06T16:50:41.702Z,1033.34
2023-02-06T16:51:41.675Z,1033.32
2023-02-06T16:52:41.692Z,1033.31
2023-02-06T16:53:41.669Z,1033.31
2023-02-06T16:54:41.639Z,1033.31
2023-02-06T16:55:41.645Z,1033.35
2023-02-06T16:56:41.619Z,1033.33
2023-02-06T16:57:41.624Z,1033.32
2023-02-06T16:58:41.617Z,1033.37
2023-02-06T16:59:41.600Z,1033.33
2023-02-06T17:00:41.584Z,1033.35
2023-02-06T17:01:41.620Z,1033.32
2023-02-06T17:02:41.568Z,1033.36
2023-02-06T17:03:41.552Z,1033.35
2023-02-06T17:04:41.573Z,1033.39
2023-02-06T17:05:41.533Z,1033.41
2023-02-06T17:06:41.515Z,1033.36
2023-02-06T17:07:41.493Z,1033.35
2023-02-06T17:08:41.493Z,1033.35
2023-02-06T17:09:41.471Z,1033.36
2023-02-06T17:10:41.480Z,1033.36
2023-02-06T17:11:41.453Z,1033.32
2023-02-06T17:12:41.436Z,1033.32
2023-02-06T17:13:41.426Z,1033.32
2023-02-06T17:14:41.446Z,1033.34
2023-02-06T17:15:41.446Z,1033.34
2023-02-06T17:16:41.390Z,1033.29
2023-02-06T17:17:41.397Z,1033.33
2023-02-06T17:18:41.378Z,1033.34
2023-02-06T17:19:41.363Z,1033.36
2023-02-06T17:20:41.357Z,1033.32
2023-02-06T17:21:41.354Z,1033.29
2023-02-06T17:22:41.375Z,1033.29
2023-02-06T17:23:41.326Z,1033.25
2023-02-06T17:24:41.299Z,1033.22
2023-02-06T17:25:41.304Z,1033.21
2023-02-06T17:26:41.274Z,1033.25
2023-02-06T17:27:41.269Z,1033.24
2023-02-06T17:28:41.267Z,1033.20
2023-02-06T17:29:41.245Z,1033.23
2023-02-06T17:30:41.469Z,1033.26
2023-02-06T17:31:41.256Z,1033.24
2023-02-06T17:32:41.236Z,1033.25
2023-02-06T17:33:41.214Z,1033.23
2023-02-06T17:34:41.184Z,1033.29
2023-02-06T17:35:41.190Z,1033.31
2023-02-06T17:36:41.194Z,1033.38
2023-02-06T17:37:41.160Z,1033.39
2023-02-06T17:38:41.141Z,1033.37
2023-02-06T17:39:41.135Z,1033.34
2023-02-06T17:40:41.740Z,1033.34
2023-02-06T17:41:41.126Z,1033.29
2023-02-06T17:42:41.112Z,1033.28
2023-02-06T17:43:41.092Z,1033.29
2023-02-06T17:44:42.604Z,1033.31
2023-02-06T17:45:41.093Z,1033.33
2023-02-06T17:46:41.160Z,1033.37
2023-02-06T17:47:41.088Z,1033.32
2023-02-06T17:48:41.045Z,1033.32
2023-02-06T17:49:41.023Z,1033.34
2023-02-06T17:50:41.007Z,1033.33
2023-02-06T17:51:41.012Z,1033.32
2023-02-06T17:52:41.018Z,1033.31
2023-02-06T17:53:41.001Z,1033.33
2023-02-06T17:54:40.977Z,1033.37
2023-02-06T17:55:40.961Z,1033.31
2023-02-06T17:56:40.940Z,1033.30
2023-02-06T17:57:40.985Z,1033.31
2023-02-06T17:58:40.931Z,1033.26
2023-02-06T17:59:40.921Z,1033.26
2023-02-06T18:00:40.897Z,1033.31
2023-02-06T18:01:40.919Z,1033.30
2023-02-06T18:02:40.967Z,1033.26
2023-02-06T18:03:40.882Z,1033.23
2023-02-06T18:04:40.850Z,1033.20
2023-02-06T18:05:40.842Z,1033.15
2023-02-06T18:06:40.826Z,1033.16
2023-02-06T18:07:40.846Z,1033.13
2023-02-06T18:08:40.849Z,1033.13
2023-02-06T18:09:42.139Z,1033.12
2023-02-06T18:10:40.786Z,1033.12
2023-02-06T18:11:40.776Z,1033.12
2023-02-06T18:12:40.771Z,1033.12
2023-02-06T18:13:40.782Z,1033.11
2023-02-06T18:14:40.754Z,1033.12
2023-02-06T18:15:40.832Z,1033.13
2023-02-06T18:16:40.729Z,1033.12
2023-02-06T18:17:40.742Z,1033.12
2023-02-06T18:18:40.727Z,1033.15
2023-02-06T18:19:40.685Z,1033.17
2023-02-06T18:20:43.524Z,1033.17
2023-02-06T18:21:40.683Z,1033.19
2023-02-06T18:22:40.660Z,1033.09
2023-02-06T18:23:40.650Z,1033.13
2023-02-06T18:24:40.639Z,1033.14
2023-02-06T18:25:43.152Z,1033.15
2023-02-06T18:26:40.604Z,1033.17
2023-02-06T18:27:40.611Z,1033.15
2023-02-06T18:28:40.584Z,1033.22
2023-02-06T18:29:49.274Z,1033.27
2023-02-06T18:30:41.594Z,1033.28
2023-02-06T18:31:40.582Z,1033.34
2023-02-06T18:32:40.569Z,1033.32
2023-02-06T18:33:40.519Z,1033.29
2023-02-06T18:34:40.536Z,1033.32
2023-02-06T18:35:40.493Z,1033.31
2023-02-06T18:36:40.499Z,1033.33
2023-02-06T18:37:40.496Z,1033.29
2023-02-06T18:38:40.465Z,1033.32
2023-02-06T18:39:40.468Z,1033.34
2023-02-06T18:40:40.457Z,1033.37
2023-02-06T18:41:40.424Z,1033.31
2023-02-06T18:42:40.433Z,1033.33
2023-02-06T18:43:40.489Z,1033.31
2023-02-06T18:44:40.396Z,1033.35
2023-02-06T18:45:40.405Z,1033.37
2023-02-06T18:46:40.484Z,1033.40
2023-02-06T18:47:40.390Z,1033.42
2023-02-06T18:48:40.362Z,1033.42
2023-02-06T18:49:40.532Z,1033.43
2023-02-06T18:50:40.351Z,1033.44
2023-02-06T18:51:40.364Z,1033.39
2023-02-06T18:52:40.339Z,1033.37
2023-02-06T18:53:40.314Z,1033.38
2023-02-06T18:54:40.316Z,1033.39
2023-02-06T18:55:40.283Z,1033.37
2023-02-06T18:56:40.273Z,1033.41
2023-02-06T18:57:40.269Z,1033.48
2023-02-06T18:58:40.279Z,1033.48
2023-02-06T18:59:40.224Z,1033.49
2023-02-06T19:00:40.637Z,1033.50
2023-02-06T19:01:40.345Z,1033.48
2023-02-06T19:02:40.216Z,1033.49
2023-02-06T19:03:40.176Z,1033.48
2023-02-06T19:04:40.172Z,1033.45
2023-02-06T19:05:40.158Z,1033.46
2023-02-06T19:06:40.196Z,1033.44
2023-02-06T19:07:40.142Z,1033.47
2023-02-06T19:08:43.213Z,1033.43
2023-02-06T19:09:40.130Z,1033.43
2023-02-06T19:10:40.118Z,1033.45
2023-02-06T19:11:40.090Z,1033.43
2023-02-06T19:12:40.107Z,1033.47
2023-02-06T19:13:40.078Z,1033.42
2023-02-06T19:14:40.063Z,1033.43
2023-02-06T19:15:40.055Z,1033.43
2023-02-06T19:16:40.043Z,1033.43
2023-02-06T19:17:40.050Z,1033.44
2023-02-06T19:18:41.930Z,1033.44
2023-02-06T19:19:40.016Z,1033.43
2023-02-06T19:20:40.004Z,1033.43
2023-02-06T19:21:39.975Z,1033.42
2023-02-06T19:22:40.025Z,1033.46
2023-02-06T19:23:39.969Z,1033.44
2023-02-06T19:24:39.961Z,1033.43
2023-02-06T19:25:39.940Z,1033.47
2023-02-06T19:26:39.933Z,1033.45
2023-02-06T19:27:39.933Z,1033.48
2023-02-06T19:28:39.898Z,1033.44
2023-02-06T19:29:39.884Z,1033.45
2023-02-06T19:30:40.149Z,1033.42
2023-02-06T19:31:39.902Z,1033.40
2023-02-06T19:32:39.870Z,1033.40
2023-02-06T19:33:39.872Z,1033.42
2023-02-06T19:34:39.857Z,1033.42
2023-02-06T19:35:39.834Z,1033.39
2023-02-06T19:36:39.825Z,1033.42
2023-02-06T19:37:39.810Z,1033.38
2023-02-06T19:38:40.334Z,1033.40
2023-02-06T19:39:39.782Z,1033.42
2023-02-06T19:40:39.773Z,1033.42
2023-02-06T19:41:39.765Z,1033.45
2023-02-06T19:42:39.758Z,1033.47
2023-02-06T19:43:39.751Z,1033.44